• Join FlightAware (Why Join?)
  • Login
  • US Flag GB Flag 
14:47 EDT


 

Airport Tracker/Info


-or-


 

Live Flight TrackerFlight Track Log ✈ N357FE ✈ 18-Apr-2013 ✈ KSAN - KMEM

Flight Track Log - Related Links

Times and Time Zones

All times are in EDT time to prevent confusion due to time zone crossing. See the N357FE flight status page for this flight to view local times or setup timezone preferences in your user account.

Time Position Orientation Groundspeed Altitude Reporting Facility
EDT Latitude Longitude Course Direction KTS MPH feet Rate Location/Type
11:29 32.7470 -117.2470 285° West 203 234 1,200  Level FlightAware
11:30 32.7540 -117.2740 287° West 223 257 1,700 1,800 Climbing FlightAware
11:30 32.7610 -117.3180 281° West 254 292 2,700 1,680 Climbing FlightAware
11:30 32.7580 -117.3270 248° West 257 296 3,000 2,160 Climbing FlightAware
11:31 32.7460 -117.3460 233° Southwest 257 296 3,800 3,120 Climbing FlightAware
11:31 32.7370 -117.3520 209° Southwest 255 293 4,300 2,700 Climbing FlightAware
11:31 32.7020 -117.3420 166° South 255 293 5,600 2,160 Climbing FlightAware
11:32 32.6910 -117.3220 123° Southeast 264 304 6,100 2,400 Climbing FlightAware
11:32 32.6710 -117.2830 121° Southeast 269 310 7,400 2,460 Climbing FlightAware
11:33 32.6510 -117.2490 125° Southeast 266 306 8,400 1,560 Climbing FlightAware
11:33 32.6480 -117.2300 101° East 272 313 8,600 960 Climbing FlightAware
11:33 32.6460 -117.2170 100° East 278 320 8,800 1,620 Climbing FlightAware
11:34 32.6410 -117.1720 98° East 294 338 9,700 1,620 Climbing FlightAware
11:34 32.6300 -117.0990 100° East 325 374 10,700 1,260 Climbing FlightAware
11:35 32.6180 -117.0280 101° East 358 412 11,300 660 Climbing FlightAware
11:36 32.6080 -116.9610 100° East 365 420 11,600 180 Climbing FlightAware
11:36 32.5960 -116.8770 100° East 365 420 11,600  Level FlightAware
11:37 32.5860 -116.8100 100° East 365 420 11,600 2,520 Level FlightAware
11:38 32.6380 -116.6960 62° Northeast 16,300 3,720 Climbing FlightAware
11:38 32.6480 -116.5850 84° East 400 460 16,900 360 Climbing FlightAware
11:39 32.6550 -116.5110 84° East 400 460 16,900  Level FlightAware
11:40 32.6610 -116.4370 84° East 400 460 16,900  Level FlightAware
11:40 32.6680 -116.3620 84° East 400 460 16,900  Level FlightAware
11:41 32.6760 -116.2700 84° East 400 460 16,900  Level FlightAware
11:42 32.6810 -116.2140 84° East 400 460 16,900 4,320 Level FlightAware
11:43 32.7056 -115.9886 84° East 466 536 22,300 3,720 Climbing Los Angeles Center
11:44 32.7197 -115.8319 84° East 477 549 23,600 1,260 Climbing Los Angeles Center
11:45 32.7336 -115.6753 84° East 479 551 25,000 1,380 Climbing Los Angeles Center
11:46 32.7492 -115.4869 84° East 480 552 26,500 1,140 Climbing Los Angeles Center
11:47 32.7542 -115.3258 88° East 487 560 27,400 840 Climbing Los Angeles Center
11:48 32.7600 -115.1606 88° East 500 575 28,300 720 Climbing Los Angeles Center
11:49 32.7633 -114.9942 89° East 503 579 29,000 660 Climbing Los Angeles Center
11:54 32.7750 -114.0430 89° East 533 613 32,900 600 Climbing FlightAware
11:55 32.7880 -113.9250 83° East 532 612 33,000 60 Climbing FlightAware
11:56 32.8110 -113.8080 77° East 532 612 33,000  Level FlightAware
11:56 32.8340 -113.6870 77° East 532 612 33,000  Level FlightAware
11:57 32.8780 -113.5650 67° East 534 615 33,000  Level FlightAware
11:58 32.9050 -113.4540 74° East 539 620 33,000  Level FlightAware
11:58 32.9350 -113.3320 74° East 538 619 33,000  Level FlightAware
11:59 32.9610 -113.2270 74° East 536 617 33,000  Level FlightAware
12:00 32.9990 -113.0710 74° East 535 616 33,000 480 Level FlightAware
12:01 33.0370 -112.9130 74° East 530 610 33,800 660 Climbing FlightAware
12:02 33.0660 -112.7950 74° East 534 615 34,100 480 Climbing FlightAware
12:02 33.0980 -112.6620 74° East 535 616 34,600 600 Climbing FlightAware
12:03 33.1260 -112.5430 74° East 535 616 35,000 300 Climbing FlightAware
12:04 33.1520 -112.4340 74° East 542 624 35,000  Level FlightAware
12:04 33.1820 -112.3070 74° East 541 623 35,000  Level FlightAware
12:05 33.2090 -112.1920 74° East 543 625 35,000  Level FlightAware
12:06 33.2410 -112.0530 75° East 545 627 35,000  Level FlightAware
12:06 33.2660 -111.9490 74° East 547 629 35,000  Level FlightAware
12:07 33.2950 -111.8230 75° East 549 632 35,000  Level FlightAware
12:08 33.3250 -111.6940 74° East 550 633 35,000  Level FlightAware
12:09 33.3530 -111.5750 74° East 548 631 35,000  Level FlightAware
12:09 33.3840 -111.4370 75° East 550 633 35,000  Level FlightAware
12:10 33.4100 -111.3220 75° East 553 636 35,000  Level FlightAware
12:11 33.4360 -111.2070 75° East 555 639 35,000  Level FlightAware
12:11 33.4670 -111.0700 75° East 557 641 35,000  Level FlightAware
12:12 33.4930 -110.9540 75° East 558 642 35,000  Level FlightAware
12:13 33.5270 -110.8170 73° East 556 640 35,000  Level FlightAware
12:13 33.5600 -110.7210 68° East 553 636 35,000  Level FlightAware
12:14 33.6020 -110.6070 66° East 554 638 35,000  Level FlightAware
12:15 33.6400 -110.5020 66° East 558 642 35,000  Level FlightAware
12:16 33.6820 -110.3830 67° East 558 642 35,000  Level FlightAware
12:16 33.7190 -110.2840 66° East 557 641 35,000  Level FlightAware
12:17 33.7620 -110.1690 66° East 557 641 35,000  Level FlightAware
12:18 33.7980 -110.0720 66° East 557 641 35,000  Level FlightAware
12:18 33.8330 -109.9760 66° East 557 641 35,000  Level FlightAware
12:19 33.8980 -109.7940 67° East 555 639 35,000  Level FlightAware
12:20 33.9360 -109.6890 66° East 554 638 35,000  Level FlightAware
12:21 33.9930 -109.5340 66° East 556 640 35,000  Level FlightAware
12:21 34.0370 -109.4160 66° East 556 640 35,000  Level FlightAware
12:22 34.0720 -109.3190 66° East 556 640 35,000  Level FlightAware
12:23 34.1170 -109.1990 66° East 556 640 35,000  Level FlightAware
12:23 34.1520 -109.1020 66° East 556 640 35,000  Level FlightAware
12:24 34.1880 -109.0060 66° East 556 640 35,000  Level FlightAware
12:25 34.2230 -108.9090 66° East 556 640 35,000  Level FlightAware
12:25 34.2590 -108.8120 66° East 556 640 35,000  Level FlightAware
12:26 34.3030 -108.6910 66° East 556 640 35,000  Level FlightAware
12:27 34.3390 -108.5950 66° East 556 640 35,000  Level FlightAware
12:28 34.3740 -108.4980 66° East 556 640 35,000  Level FlightAware
12:28 34.4100 -108.4010 66° East 556 640 35,000  Level FlightAware
12:29 34.4450 -108.3040 66° East 556 640 35,000 60 Level FlightAware
12:29 34.2630 -107.8700 117° Southeast 568 654 35,100  Climbing FlightAware
12:30 34.2790 -107.7470 81° East 568 654 35,000 -120 Descending FlightAware
12:31 34.2970 -107.6090 81° East 567 652 35,000  Level FlightAware
12:31 34.3160 -107.4650 81° East 568 654 35,000  Level FlightAware
12:32 34.3310 -107.3390 82° East 569 655 35,000  Level FlightAware
12:33 34.3500 -107.1950 81° East 568 654 35,000  Level FlightAware
12:34 34.3660 -107.0690 81° East 569 655 35,000  Level FlightAware
12:34 34.3800 -106.9530 82° East 570 656 35,000  Level FlightAware
12:35 34.3990 -106.8010 81° East 572 658 35,000  Level FlightAware
12:36 34.4220 -106.6360 80° East 572 658 35,000  Level FlightAware
12:37 34.4410 -106.4770 82° East 576 663 35,100  Climbing FlightAware
12:38 34.4620 -106.3090 81° East 575 662 35,000 -120 Descending FlightAware
12:38 34.4780 -106.1870 81° East 581 669 35,000  Level FlightAware
12:39 34.4940 -106.0620 81° East 579 666 35,000  Level FlightAware
12:40 34.5130 -105.9110 81° East 579 666 35,000  Level FlightAware
12:40 34.5290 -105.7800 82° East 575 662 35,000  Level FlightAware
12:41 34.5460 -105.6390 82° East 577 664 35,000  Level FlightAware
12:42 34.5610 -105.5260 81° East 577 664 35,000  Level FlightAware
12:42 34.5750 -105.4170 81° East 577 664 35,000  Level FlightAware
12:43 34.5900 -105.3080 80° East 577 664 35,000  Level FlightAware
12:44 34.6040 -105.1990 81° East 577 664 35,000  Level FlightAware
12:44 34.6180 -105.0900 81° East 577 664 35,000  Level FlightAware
12:45 34.6360 -104.9540 81° East 577 664 35,000  Level FlightAware
12:46 34.6500 -104.8450 81° East 577 664 35,000  Level FlightAware
12:47 34.6640 -104.7360 81° East 577 664 35,000  Level FlightAware
12:47 34.6780 -104.6270 81° East 577 664 35,000  Level FlightAware
12:48 34.6930 -104.5180 80° East 577 664 35,000  Level FlightAware
12:49 34.7100 -104.3820 81° East 577 664 35,000  Level FlightAware
12:49 34.7240 -104.2730 81° East 577 664 35,000  Level FlightAware
12:50 34.7390 -104.1640 80° East 577 664 35,000  Level FlightAware
12:51 34.7530 -104.0550 81° East 577 664 35,000  Level FlightAware
12:51 34.7653 -103.7158 81° East 582 670 35,000  Level Albuquerque Center
12:52 34.7864 -103.5211 82° East 581 669 35,000  Level Albuquerque Center
12:53 34.8089 -103.2925 83° East 581 669 35,000  Level Albuquerque Center
12:54 34.8306 -103.0972 82° East 581 669 35,000  Level Albuquerque Center
12:55 34.8483 -102.8997 84° East 582 670 35,000  Level Albuquerque Center
12:56 34.8689 -102.7036 83° East 581 669 35,000  Level Albuquerque Center
12:57 34.8867 -102.5128 83° East 581 669 35,000  Level Albuquerque Center
12:58 34.9047 -102.3164 84° East 584 672 35,000  Level Albuquerque Center
12:59 34.9267 -102.0811 83° East 586 674 35,100  Climbing Albuquerque Center
13:00 34.9447 -101.8847 84° East 590 679 35,000 -60 Descending Albuquerque Center
13:01 34.9628 -101.6892 84° East 591 680 35,000  Level Albuquerque Center
13:03 34.9803 -101.5006 83° East 591 680 35,000  Level Albuquerque Center
13:04 34.9994 -101.2594 84° East 590 679 35,000  Level Albuquerque Center
13:05 35.0156 -101.0625 84° East 589 678 35,000  Level Albuquerque Center
13:06 35.0322 -100.8667 84° East 587 676 35,000  Level Albuquerque Center
13:07 35.0494 -100.6689 84° East 587 676 35,000  Level Albuquerque Center
13:08 35.0656 -100.4708 84° East 589 678 35,000  Level Albuquerque Center
13:10 35.0983 -100.0322 85° East 586 674 35,000  Level Albuquerque Center
13:11 35.1125 -99.8356 85° East 584 672 35,000  Level Albuquerque Center
13:12 35.1261 -99.6394 85° East 582 670 35,000  Level Albuquerque Center
13:13 35.1397 -99.4431 85° East 582 670 35,000  Level Albuquerque Center
13:14 35.1539 -99.2469 85° East 581 669 35,000  Level Albuquerque Center
13:15 35.1681 -99.0508 85° East 581 669 35,000 240 Level Albuquerque Center
13:21 35.2420 -97.8240 85° East 572 658 37,000 240 Climbing FlightAware
13:22 35.2490 -97.6870 86° East 567 652 37,000  Level FlightAware
13:22 35.2570 -97.5480 86° East 570 656 37,000  Level FlightAware
13:23 35.2630 -97.4370 86° East 571 657 37,000  Level FlightAware
13:24 35.2710 -97.2820 86° East 568 654 37,000  Level FlightAware
13:24 35.2770 -97.1680 86° East 568 654 37,000  Level FlightAware
13:25 35.2840 -97.0100 87° East 564 649 37,000  Level FlightAware
13:26 35.2910 -96.8700 86° East 565 650 37,000  Level FlightAware
13:26 35.2970 -96.7590 86° East 566 651 37,000  Level FlightAware
13:27 35.3030 -96.6150 87° East 565 650 37,000  Level FlightAware
13:28 35.3100 -96.4680 87° East 563 648 37,000  Level FlightAware
13:29 35.3150 -96.3410 87° East 564 649 37,000  Level FlightAware
13:29 35.3210 -96.2130 87° East 565 650 37,000  Level FlightAware
13:30 35.3270 -96.0730 87° East 567 652 37,000  Level FlightAware
13:31 35.3320 -95.9600 87° East 569 655 37,000  Level FlightAware
13:31 35.3370 -95.8190 87° East 569 655 37,000  Level FlightAware
13:32 35.3420 -95.7100 87° East 569 655 37,000  Level FlightAware
13:33 35.3470 -95.6000 87° East 569 655 37,000  Level FlightAware
13:34 35.3530 -95.4630 87° East 569 655 37,000  Level FlightAware
13:34 35.3570 -95.3540 87° East 569 655 37,000  Level FlightAware
13:35 35.3620 -95.2440 87° East 569 655 37,000  Level FlightAware
13:36 35.3670 -95.1340 87° East 569 655 37,000  Level FlightAware
13:36 35.3710 -94.8730 89° East 564 649 37,000  Level FlightAware
13:37 35.3750 -94.7360 88° East 565 650 37,000  Level FlightAware
13:38 35.3800 -94.5640 88° East 561 646 37,000  Level FlightAware
13:39 35.3850 -94.4360 87° East 561 646 37,000  Level FlightAware
13:39 35.3900 -94.3280 87° East 561 646 37,000  Level FlightAware
13:40 35.3940 -94.2190 87° East 561 646 37,000  Level FlightAware
13:41 35.4000 -94.0840 87° East 561 646 37,000  Level FlightAware
13:41 35.4050 -93.9760 87° East 561 646 37,000  Level FlightAware
13:42 35.4090 -93.8680 87° East 561 646 37,000  Level FlightAware
13:43 35.4140 -93.7600 87° East 561 646 37,000  Level FlightAware
13:43 35.4190 -93.6520 87° East 561 646 37,000  Level FlightAware
13:44 35.4230 -93.5440 87° East 561 646 37,000  Level FlightAware
13:45 35.4290 -93.4080 87° East 561 646 37,000  Level FlightAware
13:46 35.4340 -93.3000 87° East 561 646 37,000  Level FlightAware
13:46 35.4380 -93.1920 87° East 561 646 37,000  Level FlightAware
13:47 35.4430 -93.0840 87° East 561 646 37,000  Level FlightAware
13:48 35.4470 -92.9760 87° East 561 646 37,000 -1,980 Level FlightAware
13:48 35.6592 -92.6975 87° East 551 634 35,000 -1,980 Descending Memphis Center
13:49 35.6353 -92.5231 100° East 535 616 34,400 -840 Descending Memphis Center
13:50 35.5986 -92.3486 104° East 522 601 33,400 -1,500 Descending Memphis Center
13:51 35.5783 -92.1719 98° East 522 601 31,400 -3,120 Descending Memphis Center
13:52 35.5597 -91.9981 97° East 522 601 27,200 -3,240 Descending Memphis Center
13:53 35.5453 -91.8344 96° East 508 585 25,000 -1,620 Descending Memphis Center
13:54 35.5322 -91.6836 96° East 474 545 24,000 -1,440 Descending Memphis Center
13:55 35.5169 -91.5356 97° East 450 518 22,200 -2,520 Descending Memphis Center
13:56 35.4975 -91.3797 99° East 426 490 19,000 -2,820 Descending Memphis Center
13:57 35.4883 -91.2444 95° East 406 467 16,600 -2,100 Descending Memphis Center
13:58 35.4703 -91.1167 100° East 386 444 14,900 -1,560 Descending Memphis Center
13:59 35.4606 -91.0044 96° East 373 429 13,500 -1,560 Descending Memphis Center
14:00 35.4486 -90.8769 97° East 368 423 11,800 -1,320 Descending Memphis Center
14:01 35.4322 -90.7547 99° East 363 418 10,900 -900 Descending Memphis Center
14:02 35.4200 -90.6525 98° East 336 387 10,000 -1,020 Descending Memphis Center
14:03 35.4139 -90.5506 94° East 303 349 8,900 -1,200 Descending Memphis Center
14:04 35.4225 -90.4489 84° East 292 336 7,600 -1,200 Descending Memphis Center
14:05 35.4328 -90.3392 83° East 292 336 6,600 -840 Descending Memphis Center
14:06 35.4433 -90.2450 82° East 292 336 6,000 -420 Descending Memphis Center
14:07 35.4347 -90.1583 97° East 263 303 5,800 -660 Descending Memphis Center
14:08 35.4181 -90.0794 105° East 251 289 4,700 -600 Descending Memphis Center
14:09 35.3719 -90.0361 143° Southeast 208 239 4,700 -60 Level Memphis Center
14:10 35.3281 -89.9906 140° Southeast 208 239 4,600 -180 Descending Memphis Center
14:11 35.2800 -89.9806 170° South 184 212 4,400 -420 Descending Memphis Center
14:12 35.2300 -89.9783 178° South 184 212 3,800 -780 Descending Memphis Center
14:13 35.1800 -89.9786 180° South 178 205 2,900 -900 Descending Memphis Center
14:14 35.1381 -89.9761 177° South 178 205 2,100 -840 Descending Memphis Center
14:15 35.1000 -89.9667 169° South 120 138 1,200 -840 Descending KMEM
14:17 35.0424 -89.9767 129° Southeast  Level Estimated
14:24 35.0424 -89.9767 129° Southeast  Level Estimated
14:25 35.0424 -89.9767 129° Southeast  Level Estimated
14:26 35.0424 -89.9767 129° Southeast  Level Estimated
14:27 35.0424 -89.9767 129° Southeast  Level Estimated
14:28 35.0424 -89.9767 129° Southeast  Level Estimated
14:29 35.0424 -89.9767 129° Southeast  Level Estimated
14:30 35.0424 -89.9767 129° Southeast  Level Estimated